createdAt,value
2022-12-20T00:00:07.654Z,140.80
2022-12-20T00:03:25.993Z,144.40
2022-12-20T00:06:43.783Z,143.15
2022-12-20T00:09:59.955Z,133.28
2022-12-20T00:13:17.524Z,139.23
2022-12-20T00:16:35.265Z,142.48
2022-12-20T00:19:53.599Z,139.40
2022-12-20T00:23:10.065Z,135.90
2022-12-20T00:26:31.140Z,141.35
2022-12-20T00:29:47.369Z,137.85
2022-12-20T00:33:04.273Z,136.68
2022-12-20T00:36:21.136Z,130.65
2022-12-20T00:39:37.544Z,134.60
2022-12-20T00:42:53.670Z,138.53
2022-12-20T00:46:10.886Z,140.20
2022-12-20T00:49:27.230Z,128.78
2022-12-20T00:52:43.356Z,137.13
2022-12-20T00:55:59.498Z,145.60
2022-12-20T00:59:16.557Z,148.33
2022-12-20T01:02:32.667Z,137.23
2022-12-20T01:05:57.519Z,135.63
2022-12-20T01:09:13.836Z,139.55
2022-12-20T01:12:30.164Z,135.68
2022-12-20T01:15:47.563Z,140.13
2022-12-20T01:19:04.638Z,138.15
2022-12-20T01:22:20.684Z,140.38
2022-12-20T01:25:36.953Z,137.78
2022-12-20T01:28:56.914Z,141.60
2022-12-20T01:32:13.120Z,142.40
2022-12-20T01:35:29.362Z,144.93
2022-12-20T01:38:45.798Z,145.90
2022-12-20T01:42:01.796Z,147.03
2022-12-20T01:45:29.069Z,144.93
2022-12-20T01:48:45.837Z,146.28
2022-12-20T01:52:06.398Z,143.05
2022-12-20T01:55:27.700Z,145.68
2022-12-20T01:58:47.204Z,146.90
2022-12-20T02:05:19.933Z,145.80
2022-12-20T02:08:36.290Z,153.33
2022-12-20T02:12:05.110Z,148.13
2022-12-20T02:15:45.758Z,146.35
2022-12-20T02:19:06.207Z,153.88
2022-12-20T02:22:32.209Z,145.30
2022-12-20T02:26:00.978Z,140.58
2022-12-20T02:29:29.605Z,141.18
2022-12-20T02:32:53.308Z,134.98
2022-12-20T02:36:10.944Z,143.18
2022-12-20T02:39:27.531Z,137.33
2022-12-20T02:42:43.831Z,143.45
2022-12-20T02:46:01.497Z,139.78
2022-12-20T02:49:22.605Z,144.43
2022-12-20T02:52:42.672Z,138.83
2022-12-20T02:56:04.883Z,137.60
2022-12-20T02:59:26.283Z,137.70
2022-12-20T03:02:54.522Z,140.43
2022-12-20T03:06:12.819Z,137.70
2022-12-20T03:09:28.878Z,146.35
2022-12-20T03:12:45.314Z,143.18
2022-12-20T03:16:01.491Z,141.05
2022-12-20T03:19:17.889Z,134.35
2022-12-20T03:22:34.376Z,135.25
2022-12-20T03:25:50.742Z,135.68
2022-12-20T03:29:23.833Z,141.45
2022-12-20T03:32:40.670Z,137.38
2022-12-20T03:35:57.011Z,140.90
2022-12-20T03:39:13.436Z,139.60
2022-12-20T03:42:29.652Z,137.88
2022-12-20T03:45:46.569Z,148.83
2022-12-20T03:49:02.738Z,143.80
2022-12-20T03:52:21.009Z,151.25
2022-12-20T03:55:37.711Z,136.60
2022-12-20T03:58:54.147Z,144.30
2022-12-20T04:02:10.472Z,145.68
2022-12-20T04:05:27.468Z,147.75
2022-12-20T04:08:44.445Z,135.70
2022-12-20T04:12:02.438Z,134.30
2022-12-20T04:15:20.374Z,136.70
2022-12-20T04:18:38.227Z,135.68
2022-12-20T04:22:00.864Z,136.70
2022-12-20T04:25:16.313Z,142.08
2022-12-20T04:28:32.501Z,135.95
2022-12-20T04:31:49.751Z,138.80
2022-12-20T04:35:05.904Z,137.73
2022-12-20T04:38:24.485Z,137.05
2022-12-20T04:41:40.794Z,132.65
2022-12-20T04:44:59.364Z,140.75
2022-12-20T04:48:54.559Z,138.73
2022-12-20T04:51:35.983Z,137.18
2022-12-20T04:54:54.247Z,136.43
2022-12-20T04:58:11.974Z,141.33
2022-12-20T05:01:29.341Z,139.35
2022-12-20T05:04:45.816Z,138.30
2022-12-20T05:08:04.292Z,133.45
2022-12-20T05:11:20.783Z,130.00
2022-12-20T05:14:37.806Z,135.10
2022-12-20T05:17:56.128Z,130.75
2022-12-20T05:21:27.141Z,124.33
2022-12-20T05:25:08.755Z,123.15
2022-12-20T05:28:26.502Z,113.03
2022-12-20T05:31:43.003Z,109.35
2022-12-20T05:34:59.341Z,124.65
2022-12-20T05:38:16.346Z,107.25
2022-12-20T05:41:33.825Z,112.20
2022-12-20T05:44:50.605Z,120.60
2022-12-20T05:48:08.335Z,117.55
2022-12-20T05:51:26.375Z,108.55
2022-12-20T05:54:50.022Z,108.68
2022-12-20T05:58:08.019Z,117.58
2022-12-20T06:01:25.898Z,111.70
2022-12-20T06:04:44.676Z,112.53
2022-12-20T06:08:05.707Z,123.13
2022-12-20T06:11:29.655Z,129.13
2022-12-20T06:14:43.951Z,132.60
2022-12-20T06:18:01.457Z,135.48
2022-12-20T06:21:17.648Z,130.05
2022-12-20T06:24:34.373Z,128.33
2022-12-20T06:27:50.814Z,127.95
2022-12-20T06:31:08.236Z,128.88
2022-12-20T06:34:29.674Z,113.13
2022-12-20T06:37:46.119Z,123.30
2022-12-20T06:41:02.552Z,109.98
2022-12-20T06:44:20.255Z,106.55
2022-12-20T06:47:38.505Z,101.48
2022-12-20T06:50:58.207Z,85.18
2022-12-20T06:54:17.969Z,90.55
2022-12-20T06:57:34.159Z,90.30
2022-12-20T07:00:50.418Z,89.10
2022-12-20T07:04:06.649Z,83.38
2022-12-20T07:07:23.792Z,88.78
2022-12-20T07:10:41.625Z,85.90
2022-12-20T07:14:02.083Z,83.80
2022-12-20T07:17:18.883Z,80.10
2022-12-20T07:20:35.156Z,84.98
2022-12-20T07:23:51.486Z,81.58
2022-12-20T07:27:08.941Z,86.13
2022-12-20T07:30:26.380Z,83.85
2022-12-20T07:33:42.943Z,95.50
2022-12-20T07:37:00.270Z,100.95
2022-12-20T07:40:22.382Z,100.35
2022-12-20T07:43:39.001Z,112.08
2022-12-20T07:46:57.536Z,128.55
2022-12-20T07:50:16.595Z,124.93
2022-12-20T07:53:37.068Z,130.85
2022-12-20T07:56:57.583Z,128.73
2022-12-20T08:00:19.487Z,131.78
2022-12-20T08:03:51.860Z,130.40
2022-12-20T08:07:10.192Z,131.13
2022-12-20T08:10:27.494Z,132.80
2022-12-20T08:13:46.888Z,135.80
2022-12-20T08:17:05.679Z,130.50
2022-12-20T08:20:23.327Z,118.20
2022-12-20T08:23:41.350Z,109.53
2022-12-20T08:26:58.690Z,96.38
2022-12-20T08:30:17.795Z,102.13
2022-12-20T08:33:34.326Z,109.30
2022-12-20T08:36:50.600Z,93.75
2022-12-20T08:40:10.630Z,98.35
2022-12-20T08:43:26.847Z,93.33
2022-12-20T08:46:43.916Z,92.95
2022-12-20T08:50:01.941Z,85.85
2022-12-20T08:53:18.324Z,91.03
2022-12-20T08:56:34.616Z,87.90
2022-12-20T08:59:52.897Z,92.10
2022-12-20T09:03:10.773Z,85.25
2022-12-20T09:06:30.653Z,80.90
2022-12-20T09:09:48.783Z,85.48
2022-12-20T09:13:04.942Z,83.00
2022-12-20T09:16:24.916Z,78.75
2022-12-20T09:19:41.452Z,80.25
2022-12-20T09:22:58.192Z,84.10
2022-12-20T09:26:20.853Z,79.95
2022-12-20T09:29:41.530Z,89.13
2022-12-20T09:33:08.896Z,82.05
2022-12-20T09:36:22.756Z,82.83
2022-12-20T09:39:39.445Z,87.75
2022-12-20T09:42:59.017Z,89.10
2022-12-20T09:46:16.559Z,77.08
2022-12-20T09:49:39.477Z,80.15
2022-12-20T09:53:18.360Z,75.60
2022-12-20T09:56:36.087Z,75.83
2022-12-20T09:59:54.057Z,82.20
2022-12-20T10:03:12.318Z,83.05
2022-12-20T10:06:38.196Z,83.08
2022-12-20T10:10:05.471Z,85.18
2022-12-20T10:13:31.669Z,86.47
2022-12-20T10:16:51.336Z,80.68
2022-12-20T10:20:38.867Z,80.38
2022-12-20T10:24:00.384Z,73.88
2022-12-20T10:27:23.752Z,82.90
2022-12-20T10:30:42.143Z,82.28
2022-12-20T10:33:58.579Z,79.63
2022-12-20T10:37:25.008Z,81.23
2022-12-20T10:44:09.929Z,74.85
2022-12-20T10:47:44.059Z,74.98
2022-12-20T10:51:08.387Z,66.93
2022-12-20T10:54:31.516Z,64.85
2022-12-20T10:57:50.407Z,111.35
2022-12-20T11:01:20.290Z,77.73
2022-12-20T11:04:41.181Z,66.78
2022-12-20T11:11:29.166Z,61.48
2022-12-20T11:14:47.791Z,62.85
2022-12-20T11:18:10.222Z,60.48
2022-12-20T11:21:35.619Z,60.35
2022-12-20T11:24:58.645Z,58.55
2022-12-20T11:28:32.193Z,63.95
2022-12-20T11:31:57.605Z,75.53
2022-12-20T11:35:19.431Z,65.68
2022-12-20T11:38:47.893Z,64.13
2022-12-20T11:42:10.447Z,64.48
2022-12-20T11:45:33.089Z,59.63
2022-12-20T11:49:26.996Z,59.10
2022-12-20T11:52:49.382Z,63.15
2022-12-20T11:56:10.841Z,65.63
2022-12-20T11:59:33.584Z,58.70
2022-12-20T12:02:58.468Z,67.35
2022-12-20T12:06:20.195Z,63.75
2022-12-20T12:09:41.163Z,71.28
2022-12-20T12:13:03.173Z,70.23
2022-12-20T12:16:24.223Z,74.18
2022-12-20T12:19:43.720Z,78.10
2022-12-20T12:26:23.874Z,68.83
2022-12-20T12:29:41.787Z,76.63
2022-12-20T12:33:03.906Z,71.00
2022-12-20T12:40:06.484Z,74.03
2022-12-20T12:43:57.688Z,68.58
2022-12-20T12:47:19.698Z,60.33
2022-12-20T12:55:51.307Z,70.55
2022-12-20T12:59:54.279Z,69.53
2022-12-20T13:03:16.009Z,59.85
2022-12-20T13:07:06.547Z,58.80
2022-12-20T13:11:11.387Z,60.35
2022-12-20T13:14:57.370Z,64.60
2022-12-20T13:18:32.032Z,60.65
2022-12-20T13:21:53.532Z,57.80
2022-12-20T13:25:15.439Z,64.28
2022-12-20T13:28:54.142Z,64.50
2022-12-20T13:32:11.152Z,60.10
2022-12-20T13:36:06.166Z,61.93
2022-12-20T13:39:44.681Z,65.98
2022-12-20T13:43:04.713Z,63.10
2022-12-20T13:46:32.293Z,65.45
2022-12-20T13:49:51.190Z,70.40
2022-12-20T13:56:50.589Z,66.65
2022-12-20T14:00:17.004Z,67.90
2022-12-20T14:03:37.128Z,75.05
2022-12-20T14:06:57.837Z,69.63
2022-12-20T14:10:26.332Z,64.55
2022-12-20T14:13:42.997Z,64.98
2022-12-20T14:17:02.704Z,66.13
2022-12-20T14:20:29.737Z,68.35
2022-12-20T14:27:20.943Z,74.50
2022-12-20T14:30:45.439Z,74.50
2022-12-20T14:34:12.127Z,78.93
2022-12-20T14:40:53.922Z,68.30
2022-12-20T14:44:22.289Z,70.98
2022-12-20T14:47:40.693Z,72.68
2022-12-20T14:51:05.438Z,77.13
2022-12-20T14:57:46.227Z,89.63
2022-12-20T15:01:22.192Z,93.13
2022-12-20T15:04:43.014Z,86.63
2022-12-20T15:11:23.281Z,83.13
2022-12-20T15:14:43.940Z,83.05
2022-12-20T15:18:00.244Z,78.05
2022-12-20T15:21:21.624Z,80.98
2022-12-20T15:24:38.255Z,84.08
2022-12-20T15:27:54.427Z,79.78
2022-12-20T15:31:11.396Z,76.05
2022-12-20T15:34:33.015Z,73.83
2022-12-20T15:41:20.385Z,76.50
2022-12-20T15:44:39.168Z,78.13
2022-12-20T15:48:04.242Z,73.85
2022-12-20T15:51:30.130Z,75.03
2022-12-20T15:58:01.525Z,77.60
2022-12-20T16:01:24.780Z,88.83
2022-12-20T16:04:41.302Z,78.90
2022-12-20T16:11:22.052Z,77.18
2022-12-20T16:14:38.359Z,73.30
2022-12-20T16:18:01.521Z,79.15
2022-12-20T16:21:28.065Z,78.58
2022-12-20T16:27:59.860Z,70.73
2022-12-20T16:31:25.343Z,73.35
2022-12-20T16:34:43.160Z,80.13
2022-12-20T16:41:22.776Z,77.25
2022-12-20T16:44:40.978Z,71.68
2022-12-20T16:47:58.465Z,74.20
2022-12-20T16:51:30.050Z,73.33
2022-12-20T16:58:08.438Z,71.58
2022-12-20T17:01:28.774Z,70.45
2022-12-20T17:04:47.721Z,66.60
2022-12-20T17:11:29.838Z,71.30
2022-12-20T17:14:47.034Z,71.45
2022-12-20T17:18:05.392Z,75.88
2022-12-20T17:26:11.116Z,71.58
2022-12-20T17:29:27.768Z,69.08
2022-12-20T17:32:43.999Z,68.35
2022-12-20T17:36:00.351Z,68.60
2022-12-20T17:42:32.834Z,65.48
2022-12-20T17:45:49.331Z,69.68
2022-12-20T17:49:06.455Z,73.33
2022-12-20T17:55:39.216Z,67.13
2022-12-20T17:58:55.772Z,69.00
2022-12-20T18:02:17.822Z,66.78
2022-12-20T18:05:34.602Z,69.20
2022-12-20T18:12:07.258Z,64.08
2022-12-20T18:15:24.661Z,65.80
2022-12-20T18:18:41.156Z,69.68
2022-12-20T18:21:58.918Z,68.95
2022-12-20T18:28:30.622Z,64.63
2022-12-20T18:31:47.478Z,68.13
2022-12-20T18:35:03.876Z,92.93
2022-12-20T18:41:38.696Z,66.73
2022-12-20T18:44:55.040Z,65.35
2022-12-20T18:48:12.660Z,62.35
2022-12-20T18:51:30.615Z,64.90
2022-12-20T18:58:03.297Z,68.18
2022-12-20T19:01:24.972Z,68.03
2022-12-20T19:04:41.604Z,66.90
2022-12-20T19:11:19.072Z,65.80
2022-12-20T19:14:35.716Z,61.33
2022-12-20T19:17:52.267Z,101.18
2022-12-20T19:21:18.447Z,76.88
2022-12-20T19:27:52.018Z,63.88
2022-12-20T19:31:21.505Z,66.83
2022-12-20T19:34:34.717Z,65.65
2022-12-20T19:41:07.050Z,67.65
2022-12-20T19:44:23.447Z,72.68
2022-12-20T19:47:39.599Z,66.00
2022-12-20T19:50:55.691Z,67.00
2022-12-20T19:57:28.240Z,75.05
2022-12-20T20:00:44.469Z,68.33
2022-12-20T20:04:02.596Z,66.38
2022-12-20T20:07:19.270Z,69.33
2022-12-20T20:13:51.059Z,72.90
2022-12-20T20:17:07.268Z,74.15
2022-12-20T20:20:24.354Z,64.20
2022-12-20T20:23:42.014Z,70.35
2022-12-20T20:26:58.344Z,69.85
2022-12-20T20:30:17.424Z,66.40
2022-12-20T20:33:34.970Z,69.10
2022-12-20T20:36:51.597Z,70.80
2022-12-20T20:40:08.573Z,74.60
2022-12-20T20:43:27.453Z,85.83
2022-12-20T20:46:45.755Z,87.45
2022-12-20T20:50:02.130Z,88.50
2022-12-20T20:56:33.873Z,90.43
2022-12-20T20:59:50.447Z,99.03
2022-12-20T21:03:07.495Z,102.55
2022-12-20T21:06:39.972Z,103.38
2022-12-20T21:13:01.119Z,105.40
2022-12-20T21:16:21.265Z,109.40
2022-12-20T21:19:38.067Z,108.83
2022-12-20T21:27:09.908Z,109.73
2022-12-20T21:30:26.520Z,108.45
2022-12-20T21:33:43.128Z,106.43
2022-12-20T21:36:59.429Z,101.30
2022-12-20T21:40:19.132Z,101.60
2022-12-20T21:43:35.716Z,107.45
2022-12-20T21:46:52.042Z,106.25
2022-12-20T21:50:08.350Z,110.10
2022-12-20T21:56:42.107Z,113.40
2022-12-20T21:59:58.349Z,111.38
2022-12-20T22:03:14.972Z,104.45
2022-12-20T22:06:32.465Z,103.63
2022-12-20T22:13:03.814Z,100.98
2022-12-20T22:16:26.232Z,95.33
2022-12-20T22:19:42.636Z,96.43
2022-12-20T22:22:59.310Z,99.33
2022-12-20T22:26:39.658Z,90.05
2022-12-20T22:29:59.647Z,90.85
2022-12-20T22:33:15.841Z,92.95
2022-12-20T22:36:32.821Z,94.30
2022-12-20T22:39:49.980Z,95.50
2022-12-20T22:43:06.189Z,94.93
2022-12-20T22:49:57.173Z,93.53
2022-12-20T22:57:39.223Z,101.45
2022-12-20T23:00:55.992Z,95.28
2022-12-20T23:04:13.583Z,101.83
2022-12-20T23:07:30.366Z,96.25
2022-12-20T23:11:02.401Z,92.80
2022-12-20T23:14:37.873Z,100.83
2022-12-20T23:17:54.035Z,99.33
2022-12-20T23:21:24.089Z,98.00
2022-12-20T23:24:40.132Z,101.50
2022-12-20T23:27:57.653Z,101.60
2022-12-20T23:31:15.857Z,99.33
2022-12-20T23:34:32.524Z,97.40
2022-12-20T23:37:48.911Z,94.60
2022-12-20T23:41:05.412Z,91.30
2022-12-20T23:44:21.480Z,89.28
2022-12-20T23:47:38.751Z,91.10
2022-12-20T23:51:01.899Z,89.55
2022-12-20T23:57:36.367Z,85.05
